Time;durP1;ratioP1;P1;durP2;ratioP2;P2;SDS_P1;SDS_P2;PMS_P1;PMS_P2;Temp;Humidity;BMP_temperature;BMP_pressure;BME280_temperature;BME280_humidity;BME280_pressure;Samples;Min_cycle;Max_cycle;Signal;HPM_P1;HPM_P2
2023/01/07 00:01:32;;;;;;;;;;;;;;;5.52;84.34;101184.61;1645899;85;20207;-77
2023/01/07 00:03:59;;;;;;;;;;;;;;;5.55;84.37;101187.64;1667930;84;20112;-77
2023/01/07 00:06:32;;;;;;;;;;;;;;;5.58;84.40;101187.68;1651629;85;20385;-78
2023/01/07 00:08:59;;;;;;;;;;;;;;;5.60;84.37;101182.15;1636503;85;20581;-77
2023/01/07 00:11:27;;;;;;;;;;;;;;;5.63;84.42;101187.32;1645796;85;21054;-78
2023/01/07 00:13:55;;;;;;;;;;;;;;;5.66;84.46;101180.95;1656084;84;20128;-77
2023/01/07 00:16:24;;;;;;;;;;;;;;;5.69;84.54;101180.98;1648395;85;20165;-78
2023/01/07 00:18:51;;;;;;;;;;;;;;;5.73;84.50;101179.30;1641380;85;20148;-77
2023/01/07 00:21:18;;;;;;;;;;;;;;;5.76;84.55;101178.05;1656375;85;20175;-77
2023/01/07 00:23:46;;;;;;;;;;;;;;;5.79;84.56;101180.66;1641967;84;21088;-78
2023/01/07 00:26:15;;;;;;;;;;;;;;;5.81;84.55;101181.53;1655624;85;20152;-78
2023/01/07 00:28:42;;;;;;;;;;;;;;;5.84;84.53;101179.87;1642492;85;20104;-77
2023/01/07 00:31:12;;;;;;;;;;;;;;;5.87;84.56;101177.34;1653335;85;20212;-78
2023/01/07 00:36:24;;;;;;;;;;;;;;;5.91;84.58;101179.13;1649927;84;21772;-77
2023/01/07 00:38:56;;;;;;;;;;;;;;;5.94;84.56;101180.88;1640163;84;20104;-77
2023/01/07 00:41:22;;;;;;;;;;;;;;;5.95;84.56;101174.48;1645516;85;20617;-78
2023/01/07 00:43:49;;;;;;;;;;;;;;;5.96;84.57;101175.34;1633804;85;20547;-78
2023/01/07 00:46:15;;;;;;;;;;;;;;;5.96;84.54;101168.50;1638807;85;20235;-78
2023/01/07 00:48:43;;;;;;;;;;;;;;;5.98;84.48;101176.22;1638418;85;20992;-77
2023/01/07 00:51:12;;;;;;;;;;;;;;;5.96;84.47;101174.06;1640945;85;20204;-77
2023/01/07 00:53:38;;;;;;;;;;;;;;;5.96;84.47;101173.64;1644144;85;20369;-77
2023/01/07 00:56:04;;;;;;;;;;;;;;;5.95;84.45;101176.19;1644276;85;20233;-78
2023/01/07 00:58:31;;;;;;;;;;;;;;;5.93;84.43;101181.30;1643535;83;20195;-77
2023/01/07 01:00:58;;;;;;;;;;;;;;;5.92;84.41;101180.86;1644125;85;21722;-77
2023/01/07 01:03:25;;;;;;;;;;;;;;;5.90;84.39;101184.25;1648599;85;20227;-77
2023/01/07 01:05:53;;;;;;;;;;;;;;;5.89;84.44;101182.11;1651403;85;20563;-77
2023/01/07 01:08:20;;;;;;;;;;;;;;;5.88;84.42;101184.20;1649072;84;20337;-77
2023/01/07 01:10:46;;;;;;;;;;;;;;;5.86;84.45;101184.60;1648177;85;20240;-77
2023/01/07 01:13:15;;;;;;;;;;;;;;;5.86;84.44;101191.02;1645615;85;21075;-77
2023/01/07 01:15:46;;;;;;;;;;;;;;;5.85;84.43;101193.56;1638172;84;152504;-77
2023/01/07 01:18:12;;;;;;;;;;;;;;;5.84;84.43;101191.42;1648382;85;20229;-77
2023/01/07 01:20:39;;;;;;;;;;;;;;;5.83;84.40;101193.97;1644944;85;20189;-77
2023/01/07 01:23:05;;;;;;;;;;;;;;;5.82;84.40;101199.52;1649408;85;20448;-77
2023/01/07 01:25:31;;;;;;;;;;;;;;;5.81;84.43;101207.20;1649901;85;21054;-77
2023/01/07 01:27:57;;;;;;;;;;;;;;;5.79;84.43;101193.48;1644428;85;20595;-77
2023/01/07 01:30:24;;;;;;;;;;;;;;;5.79;84.43;101188.36;1643749;84;20759;-77
2023/01/07 01:32:50;;;;;;;;;;;;;;;5.75;84.41;101190.44;1646772;85;20353;-77
2023/01/07 01:35:16;;;;;;;;;;;;;;;5.71;84.43;101188.70;1645208;85;20426;-77
2023/01/07 01:37:42;;;;;;;;;;;;;;;5.69;84.48;101186.13;1640495;84;348836;-77
2023/01/07 01:40:10;;;;;;;;;;;;;;;5.67;84.48;101182.67;1644781;85;20252;-77
2023/01/07 01:42:36;;;;;;;;;;;;;;;5.66;84.50;101179.67;1648613;84;20121;-78
2023/01/07 01:45:03;;;;;;;;;;;;;;;5.63;84.39;101171.93;1645622;85;20434;-77
2023/01/07 01:47:55;;;;;;;;;;;;;;;5.59;84.51;101185.55;1645722;85;20196;-77
2023/01/07 01:50:25;;;;;;;;;;;;;;;5.59;84.54;101199.67;1645128;85;21156;-77
2023/01/07 01:53:16;;;;;;;;;;;;;;;5.59;84.61;101198.38;1644932;85;20235;-77
2023/01/07 01:55:44;;;;;;;;;;;;;;;5.58;84.60;101200.09;1645750;85;20372;-77
2023/01/07 01:58:14;;;;;;;;;;;;;;;5.58;84.62;101203.08;1643620;85;20775;-77
2023/01/07 02:00:41;;;;;;;;;;;;;;;5.57;84.59;101206.06;1640978;85;20234;-77
2023/01/07 02:03:10;;;;;;;;;;;;;;;5.56;84.62;101213.73;1646345;85;21040;-77
2023/01/07 02:05:39;;;;;;;;;;;;;;;5.57;84.64;101202.63;1642174;85;20209;-77
2023/01/07 02:08:05;;;;;;;;;;;;;;;5.57;84.63;101205.20;1644611;84;20267;-77
2023/01/07 02:10:32;;;;;;;;;;;;;;;5.56;84.62;101208.60;1641455;84;20580;-77
2023/01/07 02:13:35;;;;;;;;;;;;;;;5.56;84.64;101210.75;1642147;85;20223;-78
2023/01/07 02:16:04;;;;;;;;;;;;;;;5.55;84.62;101209.02;1639763;85;21091;-77
2023/01/07 02:18:49;;;;;;;;;;;;;;;5.55;84.61;101207.73;1647601;85;20709;-77
2023/01/07 02:21:27;;;;;;;;;;;;;;;5.55;84.60;101201.33;1646872;85;20199;-77
2023/01/07 02:24:27;;;;;;;;;;;;;;;5.54;84.60;101192.33;1626213;84;20670;-78
2023/01/07 02:27:17;;;;;;;;;;;;;;;5.53;84.60;101191.89;1635786;85;20662;-77
2023/01/07 02:29:53;;;;;;;;;;;;;;;5.50;84.55;101186.29;1646803;85;21068;-78
2023/01/07 02:32:51;;;;;;;;;;;;;;;5.49;84.54;101184.98;1644902;84;20253;-77
2023/01/07 02:35:36;;;;;;;;;;;;;;;5.48;84.52;101203.78;1647283;85;20475;-77
2023/01/07 02:38:21;;;;;;;;;;;;;;;5.45;84.48;101198.61;1651111;85;20246;-77
2023/01/07 02:40:59;;;;;;;;;;;;;;;5.41;84.45;101204.53;1647675;85;20535;-77
2023/01/07 02:43:42;;;;;;;;;;;;;;;5.37;84.47;101204.91;1647213;85;20690;-77
2023/01/07 02:46:20;;;;;;;;;;;;;;;5.31;84.43;101201.83;1641351;84;20548;-77
2023/01/07 02:48:47;;;;;;;;;;;;;;;5.29;84.50;101204.80;1647653;85;20607;-77
2023/01/07 02:51:13;;;;;;;;;;;;;;;5.27;84.49;101203.91;1645859;85;20501;-77
2023/01/07 02:53:41;;;;;;;;;;;;;;;5.26;84.55;101205.16;1651340;85;20213;-77
2023/01/07 02:56:36;;;;;;;;;;;;;;;5.26;84.57;101209.87;1644510;84;21065;-77
2023/01/07 02:59:19;;;;;;;;;;;;;;;5.25;84.59;101217.13;1637788;85;20228;-78
2023/01/07 03:02:08;;;;;;;;;;;;;;;5.23;84.55;101208.55;1633892;85;20237;-78
2023/01/07 03:05:02;;;;;;;;;;;;;;;5.21;84.56;101218.33;1629148;85;20228;-77
2023/01/07 03:07:56;;;;;;;;;;;;;;;5.20;84.56;101214.08;1630009;86;20217;-77
2023/01/07 03:10:35;;;;;;;;;;;;;;;5.20;84.61;101221.31;1637021;87;21031;-77
2023/01/07 03:13:14;;;;;;;;;;;;;;;5.19;84.63;101217.06;1632272;86;20229;-78
2023/01/07 03:15:46;;;;;;;;;;;;;;;5.20;84.66;101216.64;1633713;85;20737;-77
2023/01/07 03:18:15;;;;;;;;;;;;;;;5.21;84.64;101223.05;1638768;85;20686;-77
2023/01/07 03:20:43;;;;;;;;;;;;;;;5.21;84.62;101226.02;1630710;86;20211;-77
2023/01/07 03:23:12;;;;;;;;;;;;;;;5.20;84.64;101216.19;1637962;86;21135;-78
2023/01/07 03:25:46;;;;;;;;;;;;;;;5.21;84.62;101214.48;1636341;85;20599;-78
2023/01/07 03:28:15;;;;;;;;;;;;;;;5.21;84.63;101211.92;1639561;87;20362;-78
2023/01/07 03:30:42;;;;;;;;;;;;;;;5.19;84.61;101213.22;1638535;87;20359;-78
2023/01/07 03:33:15;;;;;;;;;;;;;;;5.18;84.64;101202.94;1631842;85;20271;-77
2023/01/07 03:35:44;;;;;;;;;;;;;;;5.17;84.63;101209.77;1632859;85;21738;-77
2023/01/07 03:38:11;;;;;;;;;;;;;;;5.16;84.61;101205.89;1634072;87;20703;-77
2023/01/07 03:40:37;;;;;;;;;;;;;;;5.13;84.57;101205.84;1627504;86;20223;-78
2023/01/07 03:43:04;;;;;;;;;;;;;;;5.10;84.57;101196.41;1631385;85;20220;-76
2023/01/07 03:45:30;;;;;;;;;;;;;;;5.08;84.61;101195.52;1637281;85;20205;-76
2023/01/07 03:47:57;;;;;;;;;;;;;;;5.07;84.61;101195.08;1629699;86;21075;-76
2023/01/07 03:50:23;;;;;;;;;;;;;;;5.05;84.64;101196.76;1636316;87;20534;-76
2023/01/07 03:52:50;;;;;;;;;;;;;;;5.01;84.51;101191.14;1631120;87;20837;-76
2023/01/07 03:55:16;;;;;;;;;;;;;;;4.97;84.57;101192.79;1627419;87;20491;-77
2023/01/07 03:57:42;;;;;;;;;;;;;;;4.95;84.61;101191.04;1643581;84;20647;-77
2023/01/07 04:00:11;;;;;;;;;;;;;;;4.94;84.69;101185.05;1632257;85;20994;-77
2023/01/07 04:02:37;;;;;;;;;;;;;;;4.94;84.66;101188.89;1635906;86;20145;-77
2023/01/07 04:05:04;;;;;;;;;;;;;;;4.93;84.69;101188.88;1630509;87;20144;-77
2023/01/07 04:07:30;;;;;;;;;;;;;;;4.93;84.75;101187.17;1629936;86;20128;-78
2023/01/07 04:09:56;;;;;;;;;;;;;;;4.91;84.72;101190.13;1639216;85;20164;-78
2023/01/07 04:12:22;;;;;;;;;;;;;;;4.90;84.71;101190.96;1641171;85;21026;-78
2023/01/07 04:14:48;;;;;;;;;;;;;;;4.89;84.68;101189.66;1632515;85;20183;-77
2023/01/07 04:17:14;;;;;;;;;;;;;;;4.88;84.76;101191.36;1636236;85;20225;-78
2023/01/07 04:19:40;;;;;;;;;;;;;;;4.89;84.80;101189.23;1634564;85;20204;-77
2023/01/07 04:22:08;;;;;;;;;;;;;;;4.88;84.76;101189.22;1634184;85;20464;-77
2023/01/07 04:24:34;;;;;;;;;;;;;;;4.88;84.82;101190.08;1629443;85;20627;-77
2023/01/07 04:27:00;;;;;;;;;;;;;;;4.90;84.85;101192.66;1630221;87;20362;-77
2023/01/07 04:29:27;;;;;;;;;;;;;;;4.89;84.84;101185.39;1631489;87;20247;-77
2023/01/07 04:31:53;;;;;;;;;;;;;;;4.89;84.86;101187.95;1632889;87;20660;-77
2023/01/07 04:34:19;;;;;;;;;;;;;;;4.89;84.87;101188.38;1636793;86;20574;-77
2023/01/07 04:36:45;;;;;;;;;;;;;;;4.88;84.90;101193.92;1634460;87;20998;-77
2023/01/07 04:39:11;;;;;;;;;;;;;;;4.89;84.94;101187.95;1636450;85;20255;-77
2023/01/07 04:41:38;;;;;;;;;;;;;;;4.91;84.94;101190.55;1628965;85;20207;-78
2023/01/07 04:44:07;;;;;;;;;;;;;;;4.90;84.99;101194.80;1633850;85;20223;-77
2023/01/07 04:46:33;;;;;;;;;;;;;;;4.91;84.98;101200.38;1626907;87;20240;-77
2023/01/07 04:48:59;;;;;;;;;;;;;;;4.90;84.97;101196.09;1632523;85;21066;-78
2023/01/07 04:51:25;;;;;;;;;;;;;;;4.92;85.06;101193.13;1631284;87;20279;-78
2023/01/07 04:53:52;;;;;;;;;;;;;;;4.93;85.02;101187.17;1628486;85;20228;-78
2023/01/07 04:56:18;;;;;;;;;;;;;;;4.95;85.09;101191.91;1632536;87;20268;-77
2023/01/07 04:58:44;;;;;;;;;;;;;;;4.94;85.06;101187.61;1631454;87;20237;-78
2023/01/07 05:01:11;;;;;;;;;;;;;;;4.96;85.10;101185.08;1636519;86;21571;-78
2023/01/07 05:03:37;;;;;;;;;;;;;;;4.98;85.13;101192.38;1628086;87;20281;-77
2023/01/07 05:06:03;;;;;;;;;;;;;;;4.99;85.11;101196.23;1635449;87;20291;-77
2023/01/07 05:08:29;;;;;;;;;;;;;;;5.01;85.13;101200.53;1632980;85;20594;-77
2023/01/07 05:10:56;;;;;;;;;;;;;;;5.01;85.12;101199.24;1630862;86;393826;-77
2023/01/07 05:13:23;;;;;;;;;;;;;;;5.02;85.16;101194.56;1631194;87;21069;-78
2023/01/07 05:15:49;;;;;;;;;;;;;;;5.03;85.15;101197.57;1639285;87;20506;-78
2023/01/07 05:18:16;;;;;;;;;;;;;;;5.03;85.14;101194.59;1629631;87;20227;-77
2023/01/07 05:20:42;;;;;;;;;;;;;;;5.02;85.12;101199.69;1636388;85;20228;-78
2023/01/07 05:23:08;;;;;;;;;;;;;;;5.03;85.15;101193.72;1626919;85;20233;-78
2023/01/07 05:25:34;;;;;;;;;;;;;;;5.04;85.17;101198.02;1634545;85;21050;-78
2023/01/07 05:28:01;;;;;;;;;;;;;;;5.04;85.20;101200.58;1629740;87;20730;-78
2023/01/07 05:30:27;;;;;;;;;;;;;;;5.05;85.21;101197.17;1632827;87;20179;-78
2023/01/07 05:32:53;;;;;;;;;;;;;;;5.05;85.24;101192.05;1634496;85;20459;-78
2023/01/07 05:35:19;;;;;;;;;;;;;;;5.05;85.24;101189.06;1632141;85;20232;-78
2023/01/07 05:37:45;;;;;;;;;;;;;;;5.08;85.29;101195.94;1634633;86;21060;-78
2023/01/07 05:40:12;;;;;;;;;;;;;;;5.09;85.25;101195.10;1632478;86;20207;-77
2023/01/07 05:42:38;;;;;;;;;;;;;;;5.09;85.27;101192.54;1634391;87;20223;-77
2023/01/07 05:45:05;;;;;;;;;;;;;;;5.09;85.32;101190.84;1632664;87;20252;-78
2023/01/07 05:47:31;;;;;;;;;;;;;;;5.10;85.27;101200.25;1633640;87;20665;-78
2023/01/07 05:49:57;;;;;;;;;;;;;;;5.09;85.26;101202.80;1634063;85;21935;-78
2023/01/07 05:52:23;;;;;;;;;;;;;;;5.08;85.27;101201.06;1633939;87;20282;-77
2023/01/07 05:54:50;;;;;;;;;;;;;;;5.08;85.34;101205.77;1631846;85;20251;-78
2023/01/07 05:57:16;;;;;;;;;;;;;;;5.09;85.35;101197.25;1635242;87;20260;-78
2023/01/07 05:59:42;;;;;;;;;;;;;;;5.11;85.35;101198.55;1633174;85;20227;-78
2023/01/07 06:02:08;;;;;;;;;;;;;;;5.11;85.40;101204.96;1632333;87;21071;-77
2023/01/07 06:04:34;;;;;;;;;;;;;;;5.12;85.39;101207.97;1633400;85;20259;-78
2023/01/07 06:07:01;;;;;;;;;;;;;;;5.12;85.40;101211.39;1633239;85;20244;-78
2023/01/07 06:09:28;;;;;;;;;;;;;;;5.13;85.42;101211.84;1633767;87;20215;-77
2023/01/07 06:11:54;;;;;;;;;;;;;;;5.15;85.41;101211.44;1636961;86;20220;-77
2023/01/07 06:14:21;;;;;;;;;;;;;;;5.15;85.42;101214.42;1637680;87;21204;-78
2023/01/07 06:16:47;;;;;;;;;;;;;;;5.15;85.42;101217.85;1629968;86;20381;-78
2023/01/07 06:19:13;;;;;;;;;;;;;;;5.15;85.42;101216.98;1641911;85;20205;-77
2023/01/07 06:21:39;;;;;;;;;;;;;;;5.16;85.37;101217.44;1641627;86;20252;-77
2023/01/07 06:24:07;;;;;;;;;;;;;;;5.15;85.44;101220.41;1633373;87;20219;-77
2023/01/07 06:26:33;;;;;;;;;;;;;;;5.15;85.44;101215.29;1634706;87;21139;-77
2023/01/07 06:28:59;;;;;;;;;;;;;;;5.13;85.40;101214.41;1629325;86;20244;-78
2023/01/07 06:31:25;;;;;;;;;;;;;;;5.14;85.44;101221.25;1637725;85;20256;-77
2023/01/07 06:33:51;;;;;;;;;;;;;;;5.15;85.45;101222.98;1637108;86;20220;-77
2023/01/07 06:36:18;;;;;;;;;;;;;;;5.16;85.43;101223.84;1635582;86;20259;-78
2023/01/07 06:38:44;;;;;;;;;;;;;;;5.15;85.43;101225.96;1631191;85;21032;-77
2023/01/07 06:41:10;;;;;;;;;;;;;;;5.14;85.46;101225.09;1629762;87;20243;-77
2023/01/07 06:43:36;;;;;;;;;;;;;;;5.16;85.48;101230.25;1632965;87;20243;-77
2023/01/07 06:46:03;;;;;;;;;;;;;;;5.14;85.46;101225.09;1635057;85;20250;-77
2023/01/07 06:48:29;;;;;;;;;;;;;;;5.15;85.48;101229.39;1631129;86;20584;-77
2023/01/07 06:50:55;;;;;;;;;;;;;;;5.16;85.48;101232.39;1636172;86;21064;-77
2023/01/07 06:53:21;;;;;;;;;;;;;;;5.17;85.45;101229.41;1638046;86;20211;-77
2023/01/07 06:55:49;;;;;;;;;;;;;;;5.16;85.43;101223.84;1630634;86;20248;-78
2023/01/07 06:58:15;;;;;;;;;;;;;;;5.13;85.41;101216.10;1640077;86;21024;-77
2023/01/07 07:00:42;;;;;;;;;;;;;;;5.13;85.43;101223.80;1634924;85;20224;-78
2023/01/07 07:03:08;;;;;;;;;;;;;;;5.12;85.47;101222.93;1636646;86;21137;-77
2023/01/07 07:05:35;;;;;;;;;;;;;;;5.12;85.50;101233.19;1636893;86;20218;-77
2023/01/07 07:08:01;;;;;;;;;;;;;;;5.14;85.57;101237.05;1634311;86;20229;-77
2023/01/07 07:10:27;;;;;;;;;;;;;;;5.16;85.58;101232.39;1632394;86;20235;-77
2023/01/07 07:12:53;;;;;;;;;;;;;;;5.18;85.60;101235.84;1630083;87;20243;-76
2023/01/07 07:15:20;;;;;;;;;;;;;;;5.21;85.63;101233.72;1628181;85;20556;-76
2023/01/07 07:17:46;;;;;;;;;;;;;;;5.22;85.64;101232.46;1631540;86;20255;-77
2023/01/07 07:20:12;;;;;;;;;;;;;;;5.23;85.65;101234.19;1628670;87;20283;-77
2023/01/07 07:22:44;;;;;;;;;;;;;;;5.26;85.62;101226.96;1628335;87;20483;-77
2023/01/07 07:25:10;;;;;;;;;;;;;;;5.26;85.62;101229.52;1633418;87;20563;-77
2023/01/07 07:27:36;;;;;;;;;;;;;;;5.28;85.64;101234.26;1633526;85;21050;-77
2023/01/07 07:30:03;;;;;;;;;;;;;;;5.27;85.60;101233.81;1636354;87;20213;-77
2023/01/07 07:32:29;;;;;;;;;;;;;;;5.26;85.60;101234.23;1633872;87;20238;-77
2023/01/07 07:34:55;;;;;;;;;;;;;;;5.26;85.67;101229.11;1630988;87;20224;-77
2023/01/07 07:37:22;;;;;;;;;;;;;;;5.28;85.69;101231.69;1633711;87;20201;-77
2023/01/07 07:39:48;;;;;;;;;;;;;;;5.28;85.68;101231.27;1633377;87;21134;-76
2023/01/07 07:42:14;;;;;;;;;;;;;;;5.30;85.73;101234.73;1635526;85;20175;-76
2023/01/07 07:44:40;;;;;;;;;;;;;;;5.34;85.81;101236.91;1627077;86;20223;-76
2023/01/07 07:47:06;;;;;;;;;;;;;;;5.36;85.77;101236.94;1634108;86;20327;-77
2023/01/07 07:49:32;;;;;;;;;;;;;;;5.37;85.75;101229.69;1636381;85;20350;-76
2023/01/07 07:51:59;;;;;;;;;;;;;;;5.40;85.82;101239.58;1637217;87;21131;-76
2023/01/07 07:54:25;;;;;;;;;;;;;;;5.42;85.78;101240.87;1630055;86;20213;-76
2023/01/07 07:56:51;;;;;;;;;;;;;;;5.44;85.80;101245.20;1632754;85;20685;-76
2023/01/07 07:59:17;;;;;;;;;;;;;;;5.46;85.81;101255.48;1629136;87;20239;-77
2023/01/07 08:01:43;;;;;;;;;;;;;;;5.48;85.84;101253.80;1638284;87;20224;-77
2023/01/07 08:04:09;;;;;;;;;;;;;;;5.50;85.82;101252.98;1635257;86;161178;-77
2023/01/07 08:06:36;;;;;;;;;;;;;;;5.52;85.86;101250.44;1634072;85;20587;-77
2023/01/07 08:09:02;;;;;;;;;;;;;;;5.54;85.81;101242.34;1634604;86;20213;-77
2023/01/07 08:11:28;;;;;;;;;;;;;;;5.55;85.81;101237.66;1632532;85;21203;-77
2023/01/07 08:13:54;;;;;;;;;;;;;;;5.57;85.86;101230.84;1633912;87;20265;-77
2023/01/07 08:16:20;;;;;;;;;;;;;;;5.58;85.88;101233.44;1633932;85;21719;-77
2023/01/07 08:18:46;;;;;;;;;;;;;;;5.59;85.83;101240.29;1633264;87;20160;-77
2023/01/07 08:21:13;;;;;;;;;;;;;;;5.61;85.82;101239.03;1636680;85;20272;-77
2023/01/07 08:23:39;;;;;;;;;;;;;;;5.62;85.77;101230.49;1634458;85;20354;-77
2023/01/07 08:26:05;;;;;;;;;;;;;;;5.63;85.83;101233.08;1632116;86;20231;-77
2023/01/07 08:28:32;;;;;;;;;;;;;;;5.65;85.87;101232.68;1635558;87;21922;-77
2023/01/07 08:31:03;;;;;;;;;;;;;;;5.68;85.87;101229.72;1632812;86;20192;-77
2023/01/07 08:33:30;;;;;;;;;;;;;;;5.72;85.95;101221.22;1637691;87;20218;-77
2023/01/07 08:35:56;;;;;;;;;;;;;;;5.74;85.96;101215.23;1637414;87;20492;-77
2023/01/07 08:38:23;;;;;;;;;;;;;;;5.77;85.91;101211.84;1641825;85;20517;-77
2023/01/07 08:40:49;;;;;;;;;;;;;;;5.78;85.94;101205.45;1638096;87;22191;-77
2023/01/07 08:43:15;;;;;;;;;;;;;;;5.80;85.90;101199.92;1637085;87;20225;-77
2023/01/07 08:45:44;;;;;;;;;;;;;;;5.84;85.95;101204.25;1632226;87;20195;-77
2023/01/07 08:48:10;;;;;;;;;;;;;;;5.85;85.94;101200.84;1635601;86;20352;-77
2023/01/07 08:50:36;;;;;;;;;;;;;;;5.88;86.00;101202.59;1632465;87;20220;-77
2023/01/07 08:53:02;;;;;;;;;;;;;;;5.92;85.98;101206.95;1631443;85;21000;-77
2023/01/07 08:55:28;;;;;;;;;;;;;;;5.94;86.00;101200.98;1635291;87;20217;-77
2023/01/07 08:57:55;;;;;;;;;;;;;;;5.97;85.95;101204.88;1633662;87;20220;-77
2023/01/07 09:00:21;;;;;;;;;;;;;;;5.99;85.97;101212.60;1639380;85;20255;-77
2023/01/07 09:02:47;;;;;;;;;;;;;;;6.03;86.08;101200.66;1645972;85;20266;-77
2023/01/07 09:05:13;;;;;;;;;;;;;;;6.08;86.09;101204.14;1647911;85;21838;-77
2023/01/07 09:07:40;;;;;;;;;;;;;;;6.11;86.01;101217.88;1646101;84;20631;-78
2023/01/07 09:10:08;;;;;;;;;;;;;;;6.12;86.01;101222.17;1645413;85;20223;-77
2023/01/07 09:12:35;;;;;;;;;;;;;;;6.15;86.06;101220.92;1646326;85;20238;-76
2023/01/07 09:15:01;;;;;;;;;;;;;;;6.18;86.05;101214.55;1645791;85;20220;-77
2023/01/07 09:17:27;;;;;;;;;;;;;;;6.21;86.09;101215.86;1645035;85;21074;-77
2023/01/07 09:19:53;;;;;;;;;;;;;;;6.25;86.11;101206.45;1644631;84;20247;-77
2023/01/07 09:22:19;;;;;;;;;;;;;;;6.28;86.05;101208.64;1647338;85;20213;-77
2023/01/07 09:24:45;;;;;;;;;;;;;;;6.30;86.10;101209.52;1645174;85;20229;-77
2023/01/07 09:27:11;;;;;;;;;;;;;;;6.32;86.05;101206.97;1643079;85;20217;-77
2023/01/07 09:29:38;;;;;;;;;;;;;;;6.36;86.10;101207.86;1645995;84;21546;-77
2023/01/07 09:32:04;;;;;;;;;;;;;;;6.37;86.07;101206.59;1650332;84;20247;-77
2023/01/07 09:34:31;;;;;;;;;;;;;;;6.38;86.03;101210.88;1642387;84;20187;-77
2023/01/07 09:36:57;;;;;;;;;;;;;;;6.40;86.12;101215.61;1649114;84;20784;-77
2023/01/07 09:39:23;;;;;;;;;;;;;;;6.43;86.14;101210.51;1651902;84;20698;-77
2023/01/07 09:42:02;;;;;;;;;;;;;;;6.46;86.11;101212.25;1646125;84;21040;-77
2023/01/07 09:44:44;;;;;;;;;;;;;;;6.47;86.08;101205.84;1643978;84;20214;-77
2023/01/07 09:47:12;;;;;;;;;;;;;;;6.50;86.11;101205.88;1649671;84;20468;-77
2023/01/07 09:49:39;;;;;;;;;;;;;;;6.51;86.08;101208.88;1648494;84;20212;-77
2023/01/07 09:52:11;;;;;;;;;;;;;;;6.52;86.04;101209.32;1646496;84;20238;-77
2023/01/07 09:54:39;;;;;;;;;;;;;;;6.50;86.05;101202.02;1648605;84;21130;-77
2023/01/07 09:57:05;;;;;;;;;;;;;;;6.52;86.10;101205.89;1646205;84;20237;-77
2023/01/07 09:59:32;;;;;;;;;;;;;;;6.50;86.08;101207.16;1643820;84;20236;-77
2023/01/07 10:02:04;;;;;;;;;;;;;;;6.52;86.12;101201.61;1646246;85;20363;-77
2023/01/07 10:04:43;;;;;;;;;;;;;;;6.54;86.19;101197.35;1646714;85;20262;-78
2023/01/07 10:07:22;;;;;;;;;;;;;;;6.55;86.18;101198.21;1642564;85;21040;-77
2023/01/07 10:10:09;;;;;;;;;;;;;;;6.56;86.13;101189.66;1645068;85;20692;-77
2023/01/07 10:12:45;;;;;;;;;;;;;;;6.56;86.16;101187.95;1645376;85;20857;-77
2023/01/07 10:15:20;;;;;;;;;;;;;;;6.60;86.21;101193.56;1646495;85;20396;-77
2023/01/07 10:18:07;;;;;;;;;;;;;;;6.62;86.21;101191.87;1628143;85;20973;-77
2023/01/07 10:20:46;;;;;;;;;;;;;;;6.64;86.25;101194.03;1642019;85;21140;-77
2023/01/07 10:23:15;;;;;;;;;;;;;;;6.64;86.10;101189.31;1643333;85;20800;-77
2023/01/07 10:25:53;;;;;;;;;;;;;;;6.62;86.10;101190.58;1644703;86;20215;-77
2023/01/07 10:28:25;;;;;;;;;;;;;;;6.58;86.08;101196.53;1643805;85;20393;-78
2023/01/07 10:30:52;;;;;;;;;;;;;;;6.58;86.04;101196.53;1645049;85;20222;-77
2023/01/07 10:33:24;;;;;;;;;;;;;;;6.56;86.09;101187.09;1643150;85;21172;-77
2023/01/07 10:36:07;;;;;;;;;;;;;;;6.54;86.09;101183.64;1647420;85;20288;-77
2023/01/07 10:38:36;;;;;;;;;;;;;;;6.54;86.06;101184.92;1647010;86;20182;-77
2023/01/07 10:41:12;;;;;;;;;;;;;;;6.52;86.11;101178.91;1635992;85;20388;-77
2023/01/07 10:43:51;;;;;;;;;;;;;;;6.53;86.13;101171.64;1646607;86;20354;-77
2023/01/07 10:46:32;;;;;;;;;;;;;;;6.53;86.11;101175.50;1643602;85;21701;-77
2023/01/07 10:49:20;;;;;;;;;;;;;;;6.52;86.11;101171.20;1643565;85;20250;-77
2023/01/07 10:52:14;;;;;;;;;;;;;;;6.50;86.13;101171.62;1644767;85;20218;-77
2023/01/07 10:54:59;;;;;;;;;;;;;;;6.47;86.11;101166.02;1647192;85;20221;-77
2023/01/07 10:57:27;;;;;;;;;;;;;;;6.46;86.14;101176.28;1645650;85;20186;-77
2023/01/07 10:59:57;;;;;;;;;;;;;;;6.44;86.09;101172.42;1648836;85;21028;-77
2023/01/07 11:02:26;;;;;;;;;;;;;;;6.40;86.05;101168.52;1642856;85;21055;-77
2023/01/07 11:04:53;;;;;;;;;;;;;;;6.38;86.08;101165.94;1645255;84;20220;-77
2023/01/07 11:07:46;;;;;;;;;;;;;;;6.37;86.09;101167.20;1644937;84;20347;-78
2023/01/07 11:10:15;;;;;;;;;;;;;;;6.35;86.11;101168.47;1645885;85;20784;-78
2023/01/07 11:12:52;;;;;;;;;;;;;;;6.34;86.12;101171.02;1643542;84;21863;-77
2023/01/07 11:15:37;;;;;;;;;;;;;;;6.34;86.11;101169.73;1648726;85;20400;-77
2023/01/07 11:18:06;;;;;;;;;;;;;;;6.32;86.13;101172.30;1646630;85;20187;-77
2023/01/07 11:20:44;;;;;;;;;;;;;;;6.34;86.24;101165.89;1648556;85;20979;-77
2023/01/07 11:23:31;;;;;;;;;;;;;;;6.34;86.19;101157.76;1635226;85;20494;-77
2023/01/07 11:26:12;;;;;;;;;;;;;;;6.36;86.24;101152.64;1647372;85;21114;-77
2023/01/07 11:28:42;;;;;;;;;;;;;;;6.35;86.20;101147.92;1646540;84;20143;-77
2023/01/07 11:31:08;;;;;;;;;;;;;;;6.35;86.24;101147.92;1638536;85;20147;-77
2023/01/07 11:33:40;;;;;;;;;;;;;;;6.35;86.21;101140.64;1650171;84;20590;-77
2023/01/07 11:36:07;;;;;;;;;;;;;;;6.36;86.21;101134.66;1647579;85;20475;-77
2023/01/07 11:38:36;;;;;;;;;;;;;;;6.35;86.25;101132.52;1644290;84;21032;-77
2023/01/07 11:41:05;;;;;;;;;;;;;;;6.37;86.29;101131.24;1649516;84;20114;-77
2023/01/07 11:43:39;;;;;;;;;;;;;;;6.39;86.35;101123.12;1655931;84;20181;-77
2023/01/07 11:46:13;;;;;;;;;;;;;;;6.41;86.30;101122.30;1655123;85;20124;-77
2023/01/07 11:48:48;;;;;;;;;;;;;;;6.42;86.34;101115.03;1627254;86;20420;-77
2023/01/07 11:51:15;;;;;;;;;;;;;;;6.45;86.39;101115.06;1654247;85;21073;-77
2023/01/07 11:53:58;;;;;;;;;;;;;;;6.48;86.38;101112.52;1636386;85;20250;-77
2023/01/07 11:56:32;;;;;;;;;;;;;;;6.51;86.39;101117.68;1633933;84;20188;-77
2023/01/07 11:59:14;;;;;;;;;;;;;;;6.50;86.31;101104.82;1638593;85;20388;-77
2023/01/07 12:01:48;;;;;;;;;;;;;;;6.50;86.34;101103.53;1642190;85;20139;-77
2023/01/07 12:04:29;;;;;;;;;;;;;;;6.52;86.40;101097.98;1647909;84;22390;-77
2023/01/07 12:07:00;;;;;;;;;;;;;;;6.52;86.39;101097.98;1651781;84;20144;-77
2023/01/07 12:09:35;;;;;;;;;;;;;;;6.53;86.44;101095.86;1654267;84;20124;-77
2023/01/07 12:12:38;;;;;;;;;;;;;;;6.53;86.41;101087.72;1650781;85;20199;-77
2023/01/07 12:15:22;;;;;;;;;;;;;;;6.54;86.44;101086.88;1649179;85;20164;-77
2023/01/07 12:17:51;;;;;;;;;;;;;;;6.58;86.53;101078.34;1643879;85;21030;-77
2023/01/07 12:20:51;;;;;;;;;;;;;;;6.64;86.57;101069.83;1645929;84;20139;-77
2023/01/07 12:23:30;;;;;;;;;;;;;;;6.69;86.58;101061.72;1649252;84;20203;-77
2023/01/07 12:26:00;;;;;;;;;;;;;;;6.76;86.61;101059.60;1639954;85;20192;-77
2023/01/07 12:28:48;;;;;;;;;;;;;;;6.82;86.64;101062.21;1641749;85;20561;-77
2023/01/07 12:31:21;;;;;;;;;;;;;;;6.87;86.64;101054.53;1648758;85;21159;-78
2023/01/07 12:33:53;;;;;;;;;;;;;;;6.95;86.66;101053.73;1651933;84;20180;-77
2023/01/07 12:36:41;;;;;;;;;;;;;;;7.01;86.67;101052.91;1644290;85;20212;-77
2023/01/07 12:39:11;;;;;;;;;;;;;;;7.07;86.67;101049.08;1659047;84;20172;-77
2023/01/07 12:41:40;;;;;;;;;;;;;;;7.13;86.66;101045.25;1624777;87;20215;-77
2023/01/07 12:44:13;;;;;;;;;;;;;;;7.14;86.56;101046.97;1647673;86;21129;-77
2023/01/07 12:46:46;;;;;;;;;;;;;;;7.18;86.56;101043.99;1632377;86;20603;-77
2023/01/07 12:49:22;;;;;;;;;;;;;;;7.19;86.54;101041.85;1627965;86;20525;-77
2023/01/07 12:52:06;;;;;;;;;;;;;;;7.22;86.55;101050.45;1607697;85;20392;-77
2023/01/07 12:54:44;;;;;;;;;;;;;;;7.25;86.56;101047.03;1638664;86;20455;-77
2023/01/07 12:57:16;;;;;;;;;;;;;;;7.28;86.62;101056.02;1640102;86;20995;-77
2023/01/07 12:59:58;;;;;;;;;;;;;;;7.29;86.58;101043.58;1641390;86;20152;-77
2023/01/07 13:02:31;;;;;;;;;;;;;;;7.31;86.58;101046.59;1631485;86;20240;-77
2023/01/07 13:05:15;;;;;;;;;;;;;;;7.32;86.54;101047.45;1610096;86;20224;-77